sensor_id;sensor_type;location;lat;lon;timestamp;pressure;altitude;pressure_sealevel;temperature;humidity
47054;BME280;32811;52.382;5.270;2023-06-10T00:00:59;101583.00;;;19.23;78.91
47054;BME280;32811;52.382;5.270;2023-06-10T00:03:26;101581.53;;;19.10;79.71
47054;BME280;32811;52.382;5.270;2023-06-10T00:05:53;101585.06;;;19.07;79.23
47054;BME280;32811;52.382;5.270;2023-06-10T00:08:20;101589.38;;;19.10;78.96
47054;BME280;32811;52.382;5.270;2023-06-10T00:10:46;101593.00;;;19.04;80.34
47054;BME280;32811;52.382;5.270;2023-06-10T00:13:13;101578.31;;;18.96;80.16
47054;BME280;32811;52.382;5.270;2023-06-10T00:15:39;101590.59;;;18.91;80.51
47054;BME280;32811;52.382;5.270;2023-06-10T00:18:06;101588.81;;;18.94;80.02
47054;BME280;32811;52.382;5.270;2023-06-10T00:20:36;101584.66;;;18.82;80.74
47054;BME280;32811;52.382;5.270;2023-06-10T00:23:04;101598.50;;;18.89;80.45
47054;BME280;32811;52.382;5.270;2023-06-10T00:25:33;101589.94;;;18.79;81.21
47054;BME280;32811;52.382;5.270;2023-06-10T00:27:59;101571.81;;;18.67;80.90
47054;BME280;32811;52.382;5.270;2023-06-10T00:30:26;101589.72;;;18.92;80.19
47054;BME280;32811;52.382;5.270;2023-06-10T00:32:53;101596.00;;;18.81;81.17
47054;BME280;32811;52.382;5.270;2023-06-10T00:35:19;101596.06;;;18.75;81.10
47054;BME280;32811;52.382;5.270;2023-06-10T00:37:46;101594.31;;;18.79;81.06
47054;BME280;32811;52.382;5.270;2023-06-10T00:40:14;101603.13;;;18.70;81.85
47054;BME280;32811;52.382;5.270;2023-06-10T00:42:41;101598.06;;;18.61;82.66
47054;BME280;32811;52.382;5.270;2023-06-10T00:45:07;101591.16;;;18.57;82.87
47054;BME280;32811;52.382;5.270;2023-06-10T00:47:35;101599.91;;;18.56;82.79
47054;BME280;32811;52.382;5.270;2023-06-10T00:50:02;101598.34;;;18.44;83.87
47054;BME280;32811;52.382;5.270;2023-06-10T00:52:29;101602.78;;;18.37;84.27
47054;BME280;32811;52.382;5.270;2023-06-10T00:54:57;101599.38;;;18.35;85.53
47054;BME280;32811;52.382;5.270;2023-06-10T00:57:25;101594.19;;;18.31;85.53
47054;BME280;32811;52.382;5.270;2023-06-10T00:59:54;101602.00;;;18.35;86.00
47054;BME280;32811;52.382;5.270;2023-06-10T01:02:21;101600.25;;;18.33;85.73
47054;BME280;32811;52.382;5.270;2023-06-10T01:04:47;101600.34;;;18.28;86.17
47054;BME280;32811;52.382;5.270;2023-06-10T01:07:21;101609.06;;;18.29;86.66
47054;BME280;32811;52.382;5.270;2023-06-10T01:12:34;101604.75;;;18.24;86.89
47054;BME280;32811;52.382;5.270;2023-06-10T01:15:05;101600.41;;;18.25;87.86
47054;BME280;32811;52.382;5.270;2023-06-10T01:17:33;101604.75;;;18.24;87.80
47054;BME280;32811;52.382;5.270;2023-06-10T01:19:59;101597.16;;;18.09;88.22
47054;BME280;32811;52.382;5.270;2023-06-10T01:22:27;101602.56;;;17.95;90.60
47054;BME280;32811;52.382;5.270;2023-06-10T01:25:03;101610.28;;;18.03;89.21
47054;BME280;32811;52.382;5.270;2023-06-10T01:27:33;101612.06;;;18.01;90.32
47054;BME280;32811;52.382;5.270;2023-06-10T01:32:37;101613.91;;;17.93;91.96
47054;BME280;32811;52.382;5.270;2023-06-10T01:35:08;101617.41;;;17.92;91.37
47054;BME280;32811;52.382;5.270;2023-06-10T01:37:36;101609.72;;;17.82;92.94
47054;BME280;32811;52.382;5.270;2023-06-10T01:40:05;101609.75;;;17.78;93.20
47054;BME280;32811;52.382;5.270;2023-06-10T01:42:33;101607.97;;;17.80;92.49
47054;BME280;32811;52.382;5.270;2023-06-10T01:44:59;101605.38;;;17.77;93.40
47054;BME280;32811;52.382;5.270;2023-06-10T01:47:26;101589.91;;;17.64;93.26
47054;BME280;32811;52.382;5.270;2023-06-10T01:49:53;101611.53;;;17.74;93.58
47054;BME280;32811;52.382;5.270;2023-06-10T01:52:20;101604.53;;;17.75;94.18
47054;BME280;32811;52.382;5.270;2023-06-10T01:54:46;101609.94;;;17.62;96.06
47054;BME280;32811;52.382;5.270;2023-06-10T01:57:13;101615.16;;;17.64;95.01
47054;BME280;32811;52.382;5.270;2023-06-10T01:59:39;101608.28;;;17.55;95.69
47054;BME280;32811;52.382;5.270;2023-06-10T02:02:06;101616.22;;;17.46;98.18
47054;BME280;32811;52.382;5.270;2023-06-10T02:04:33;101616.19;;;17.51;97.10
47054;BME280;32811;52.382;5.270;2023-06-10T02:06:59;101613.53;;;17.52;96.35
47054;BME280;32811;52.382;5.270;2023-06-10T02:09:30;101616.13;;;17.54;97.12
47054;BME280;32811;52.382;5.270;2023-06-10T02:11:57;101608.41;;;17.43;98.15
47054;BME280;32811;52.382;5.270;2023-06-10T02:14:24;101613.69;;;17.38;99.19
47054;BME280;32811;52.382;5.270;2023-06-10T02:16:51;101613.69;;;17.37;99.17
47054;BME280;32811;52.382;5.270;2023-06-10T02:19:18;101614.50;;;17.43;98.45
47054;BME280;32811;52.382;5.270;2023-06-10T02:21:45;101608.56;;;17.31;100.00
47054;BME280;32811;52.382;5.270;2023-06-10T02:24:11;101611.31;;;17.20;100.00
47054;BME280;32811;52.382;5.270;2023-06-10T02:26:38;101616.50;;;17.21;100.00
47054;BME280;32811;52.382;5.270;2023-06-10T02:29:05;101621.75;;;17.18;100.00
47054;BME280;32811;52.382;5.270;2023-06-10T02:31:31;101620.88;;;17.19;100.00
47054;BME280;32811;52.382;5.270;2023-06-10T02:33:58;101619.19;;;17.12;100.00
47054;BME280;32811;52.382;5.270;2023-06-10T02:36:25;101618.28;;;17.16;100.00
47054;BME280;32811;52.382;5.270;2023-06-10T02:38:54;101619.19;;;17.15;100.00
47054;BME280;32811;52.382;5.270;2023-06-10T02:41:21;101625.25;;;17.16;100.00
47054;BME280;32811;52.382;5.270;2023-06-10T02:43:48;101622.66;;;17.14;100.00
47054;BME280;32811;52.382;5.270;2023-06-10T02:46:14;101623.53;;;17.12;100.00
47054;BME280;32811;52.382;5.270;2023-06-10T02:48:42;101628.00;;;17.04;100.00
47054;BME280;32811;52.382;5.270;2023-06-10T02:51:10;101626.25;;;17.01;100.00
47054;BME280;32811;52.382;5.270;2023-06-10T02:53:37;101623.75;;;16.93;100.00
47054;BME280;32811;52.382;5.270;2023-06-10T02:56:04;101627.25;;;16.88;100.00
47054;BME280;32811;52.382;5.270;2023-06-10T02:58:31;101618.47;;;16.96;100.00
47054;BME280;32811;52.382;5.270;2023-06-10T03:00:57;101618.44;;;17.02;100.00
47054;BME280;32811;52.382;5.270;2023-06-10T03:03:24;101616.75;;;16.95;100.00
47054;BME280;32811;52.382;5.270;2023-06-10T03:05:52;101622.88;;;16.91;100.00
47054;BME280;32811;52.382;5.270;2023-06-10T03:08:18;101620.28;;;16.91;100.00
47054;BME280;32811;52.382;5.270;2023-06-10T03:10:45;101619.38;;;16.97;100.00
47054;BME280;32811;52.382;5.270;2023-06-10T03:13:11;101624.59;;;16.94;100.00
47054;BME280;32811;52.382;5.270;2023-06-10T03:15:38;101634.25;;;16.86;100.00
47054;BME280;32811;52.382;5.270;2023-06-10T03:18:07;101635.16;;;16.80;100.00
47054;BME280;32811;52.382;5.270;2023-06-10T03:20:34;101631.66;;;16.76;100.00
47054;BME280;32811;52.382;5.270;2023-06-10T03:23:06;101629.09;;;16.75;100.00
47054;BME280;32811;52.382;5.270;2023-06-10T03:25:33;101638.63;;;16.74;100.00
47054;BME280;32811;52.382;5.270;2023-06-10T03:27:59;101637.78;;;16.74;100.00
47054;BME280;32811;52.382;5.270;2023-06-10T03:30:27;101635.19;;;16.72;100.00
47054;BME280;32811;52.382;5.270;2023-06-10T03:32:54;101624.81;;;16.65;100.00
47054;BME280;32811;52.382;5.270;2023-06-10T03:35:21;101633.50;;;16.65;100.00
47054;BME280;32811;52.382;5.270;2023-06-10T03:37:47;101650.78;;;16.78;100.00
47054;BME280;32811;52.382;5.270;2023-06-10T03:40:14;101624.88;;;16.60;100.00
47054;BME280;32811;52.382;5.270;2023-06-10T03:42:40;101635.28;;;16.60;100.00
47054;BME280;32811;52.382;5.270;2023-06-10T03:45:07;101637.03;;;16.61;100.00
47054;BME280;32811;52.382;5.270;2023-06-10T03:47:37;101643.09;;;16.60;100.00
47054;BME280;32811;52.382;5.270;2023-06-10T03:50:04;101644.81;;;16.63;100.00
47054;BME280;32811;52.382;5.270;2023-06-10T03:52:31;101637.03;;;16.56;100.00
47054;BME280;32811;52.382;5.270;2023-06-10T03:54:57;101649.09;;;16.71;100.00
47054;BME280;32811;52.382;5.270;2023-06-10T03:57:24;101649.09;;;16.70;100.00
47054;BME280;32811;52.382;5.270;2023-06-10T03:59:51;101651.75;;;16.65;100.00
47054;BME280;32811;52.382;5.270;2023-06-10T04:02:17;101646.59;;;16.59;100.00
47054;BME280;32811;52.382;5.270;2023-06-10T04:04:44;101639.66;;;16.56;100.00
47054;BME280;32811;52.382;5.270;2023-06-10T04:07:11;101654.38;;;16.64;100.00
47054;BME280;32811;52.382;5.270;2023-06-10T04:09:38;101647.47;;;16.59;100.00
47054;BME280;32811;52.382;5.270;2023-06-10T04:12:05;101652.63;;;16.64;100.00
47054;BME280;32811;52.382;5.270;2023-06-10T04:14:36;101656.09;;;16.63;100.00
47054;BME280;32811;52.382;5.270;2023-06-10T04:17:05;101654.34;;;16.68;100.00
47054;BME280;32811;52.382;5.270;2023-06-10T04:19:35;101653.50;;;16.66;100.00
47054;BME280;32811;52.382;5.270;2023-06-10T04:22:01;101650.88;;;16.65;100.00
47054;BME280;32811;52.382;5.270;2023-06-10T04:24:31;101655.19;;;16.70;100.00
47054;BME280;32811;52.382;5.270;2023-06-10T04:26:58;101661.28;;;16.68;100.00
47054;BME280;32811;52.382;5.270;2023-06-10T04:29:25;101659.56;;;16.65;100.00
47054;BME280;32811;52.382;5.270;2023-06-10T04:31:51;101661.31;;;16.65;100.00
47054;BME280;32811;52.382;5.270;2023-06-10T04:34:19;101655.22;;;16.67;100.00
47054;BME280;32811;52.382;5.270;2023-06-10T04:36:45;101665.56;;;16.76;100.00
47054;BME280;32811;52.382;5.270;2023-06-10T04:39:12;101659.53;;;16.73;100.00
47054;BME280;32811;52.382;5.270;2023-06-10T04:41:39;101665.53;;;16.84;100.00
47054;BME280;32811;52.382;5.270;2023-06-10T04:44:06;101665.50;;;16.87;100.00
47054;BME280;32811;52.382;5.270;2023-06-10T04:46:33;101670.72;;;16.87;100.00
47054;BME280;32811;52.382;5.270;2023-06-10T04:48:59;101669.81;;;16.91;100.00
47054;BME280;32811;52.382;5.270;2023-06-10T04:51:28;101673.25;;;16.98;100.00
47054;BME280;32811;52.382;5.270;2023-06-10T04:53:54;101669.75;;;17.02;100.00
47054;BME280;32811;52.382;5.270;2023-06-10T04:56:21;101674.00;;;17.09;100.00
47054;BME280;32811;52.382;5.270;2023-06-10T04:58:48;101668.66;;;17.25;100.00
47054;BME280;32811;52.382;5.270;2023-06-10T05:01:15;101666.78;;;17.36;100.00
47054;BME280;32811;52.382;5.270;2023-06-10T05:03:42;101667.59;;;17.42;100.00
47054;BME280;32811;52.382;5.270;2023-06-10T05:06:08;101672.72;;;17.52;100.00
47054;BME280;32811;52.382;5.270;2023-06-10T05:08:35;101674.25;;;17.68;100.00
47054;BME280;32811;52.382;5.270;2023-06-10T05:11:02;101680.25;;;17.75;100.00
47054;BME280;32811;52.382;5.270;2023-06-10T05:13:29;101677.56;;;17.86;100.00
47054;BME280;32811;52.382;5.270;2023-06-10T05:15:56;101678.94;;;18.16;100.00
47054;BME280;32811;52.382;5.270;2023-06-10T05:18:22;101669.69;;;18.52;100.00
47054;BME280;32811;52.382;5.270;2023-06-10T05:20:49;101668.13;;;18.96;100.00
47054;BME280;32811;52.382;5.270;2023-06-10T05:23:16;101674.41;;;19.36;100.00
47054;BME280;32811;52.382;5.270;2023-06-10T05:25:42;101672.81;;;19.74;100.00
47054;BME280;32811;52.382;5.270;2023-06-10T05:28:09;101675.72;;;20.02;100.00
47054;BME280;32811;52.382;5.270;2023-06-10T05:30:39;101670.84;;;20.25;97.20
47054;BME280;32811;52.382;5.270;2023-06-10T05:33:06;101665.78;;;20.53;95.78
47054;BME280;32811;52.382;5.270;2023-06-10T05:35:33;101669.63;;;20.78;95.07
47054;BME280;32811;52.382;5.270;2023-06-10T05:37:59;101674.59;;;20.88;95.19
47054;BME280;32811;52.382;5.270;2023-06-10T05:40:29;101667.72;;;20.83;92.82
47054;BME280;32811;52.382;5.270;2023-06-10T05:42:56;101670.44;;;21.14;90.22
47054;BME280;32811;52.382;5.270;2023-06-10T05:45:22;101665.44;;;21.38;91.12
47054;BME280;32811;52.382;5.270;2023-06-10T05:47:49;101666.41;;;21.33;88.49
47054;BME280;32811;52.382;5.270;2023-06-10T05:50:16;101680.03;;;21.15;88.04
47054;BME280;32811;52.382;5.270;2023-06-10T05:52:42;101674.19;;;21.36;90.68
47054;BME280;32811;52.382;5.270;2023-06-10T05:55:09;101678.56;;;21.70;87.86
47054;BME280;32811;52.382;5.270;2023-06-10T05:57:37;101673.44;;;21.95;87.52
47054;BME280;32811;52.382;5.270;2023-06-10T06:00:04;101676.09;;;21.94;85.38
47054;BME280;32811;52.382;5.270;2023-06-10T06:02:31;101672.63;;;22.23;84.76
47054;BME280;32811;52.382;5.270;2023-06-10T06:04:57;101682.56;;;21.84;83.55
47054;BME280;32811;52.382;5.270;2023-06-10T06:07:24;101676.09;;;21.94;85.25
47054;BME280;32811;52.382;5.270;2023-06-10T06:09:51;101680.16;;;22.35;81.82
47054;BME280;32811;52.382;5.270;2023-06-10T06:12:17;101673.91;;;22.66;81.27
47054;BME280;32811;52.382;5.270;2023-06-10T06:14:44;101673.13;;;22.63;80.06
47054;BME280;32811;52.382;5.270;2023-06-10T06:17:11;101677.56;;;22.34;81.39
47054;BME280;32811;52.382;5.270;2023-06-10T06:19:37;101681.78;;;22.40;80.78
47054;BME280;32811;52.382;5.270;2023-06-10T06:22:04;101680.31;;;22.57;79.11
47054;BME280;32811;52.382;5.270;2023-06-10T06:24:31;101680.84;;;22.69;79.53
47054;BME280;32811;52.382;5.270;2023-06-10T06:26:58;101668.25;;;22.77;78.64
47054;BME280;32811;52.382;5.270;2023-06-10T06:29:24;101668.75;;;23.15;79.38
47054;BME280;32811;52.382;5.270;2023-06-10T06:31:51;101664.28;;;23.17;75.46
47054;BME280;32811;52.382;5.270;2023-06-10T06:34:18;101678.06;;;23.74;76.98
47054;BME280;32811;52.382;5.270;2023-06-10T06:36:45;101677.06;;;23.53;74.32
47054;BME280;32811;52.382;5.270;2023-06-10T06:39:11;101675.78;;;23.65;74.08
47054;BME280;32811;52.382;5.270;2023-06-10T06:41:38;101675.56;;;23.22;74.57
47054;BME280;32811;52.382;5.270;2023-06-10T06:44:04;101676.19;;;23.29;75.34
47054;BME280;32811;52.382;5.270;2023-06-10T06:46:31;101677.84;;;23.31;74.19
47054;BME280;32811;52.382;5.270;2023-06-10T06:48:58;101677.41;;;23.44;74.03
47054;BME280;32811;52.382;5.270;2023-06-10T06:51:24;101673.66;;;23.74;72.49
47054;BME280;32811;52.382;5.270;2023-06-10T06:53:51;101674.56;;;23.50;73.58
47054;BME280;32811;52.382;5.270;2023-06-10T06:56:21;101678.69;;;23.57;72.58
47054;BME280;32811;52.382;5.270;2023-06-10T06:58:47;101671.97;;;23.48;72.95
47054;BME280;32811;52.382;5.270;2023-06-10T07:01:14;101671.00;;;23.76;72.56
47054;BME280;32811;52.382;5.270;2023-06-10T07:03:41;101649.59;;;23.60;72.54
47054;BME280;32811;52.382;5.270;2023-06-10T07:06:07;101670.19;;;24.19;72.12
47054;BME280;32811;52.382;5.270;2023-06-10T07:08:34;101663.91;;;24.22;70.45
47054;BME280;32811;52.382;5.270;2023-06-10T07:11:01;101671.34;;;24.12;70.53
47054;BME280;32811;52.382;5.270;2023-06-10T07:13:27;101673.53;;;24.01;71.23
47054;BME280;32811;52.382;5.270;2023-06-10T07:15:54;101677.53;;;23.89;69.99
47054;BME280;32811;52.382;5.270;2023-06-10T07:18:21;101673.69;;;23.98;70.14
47054;BME280;32811;52.382;5.270;2023-06-10T07:20:47;101682.38;;;24.22;70.23
47054;BME280;32811;52.382;5.270;2023-06-10T07:23:14;101683.97;;;24.72;70.24
47054;BME280;32811;52.382;5.270;2023-06-10T07:25:41;101676.91;;;24.93;68.04
47054;BME280;32811;52.382;5.270;2023-06-10T07:28:08;101678.00;;;24.87;67.10
47054;BME280;32811;52.382;5.270;2023-06-10T07:30:34;101676.56;;;25.00;65.75
47054;BME280;32811;52.382;5.270;2023-06-10T07:33:01;101668.59;;;25.22;65.77
47054;BME280;32811;52.382;5.270;2023-06-10T07:35:29;101667.56;;;25.66;66.09
47054;BME280;32811;52.382;5.270;2023-06-10T07:37:55;101670.09;;;25.67;65.05
47054;BME280;32811;52.382;5.270;2023-06-10T07:40:23;101672.03;;;25.64;64.30
47054;BME280;32811;52.382;5.270;2023-06-10T07:42:50;101669.72;;;25.56;64.45
47054;BME280;32811;52.382;5.270;2023-06-10T07:45:16;101677.59;;;25.58;65.79
47054;BME280;32811;52.382;5.270;2023-06-10T07:47:43;101675.53;;;25.45;64.79
47054;BME280;32811;52.382;5.270;2023-06-10T07:50:10;101675.66;;;26.01;65.22
47054;BME280;32811;52.382;5.270;2023-06-10T07:52:37;101674.50;;;26.06;65.38
47054;BME280;32811;52.382;5.270;2023-06-10T07:55:04;101686.44;;;25.96;63.39
47054;BME280;32811;52.382;5.270;2023-06-10T07:57:31;101678.59;;;25.95;63.23
47054;BME280;32811;52.382;5.270;2023-06-10T08:00:01;101676.16;;;26.09;63.09
47054;BME280;32811;52.382;5.270;2023-06-10T08:02:30;101679.03;;;26.41;62.78
47054;BME280;32811;52.382;5.270;2023-06-10T08:04:57;101684.09;;;26.64;61.41
47054;BME280;32811;52.382;5.270;2023-06-10T08:07:24;101681.94;;;26.54;60.50
47054;BME280;32811;52.382;5.270;2023-06-10T08:09:51;101686.19;;;26.58;60.91
47054;BME280;32811;52.382;5.270;2023-06-10T08:12:18;101673.50;;;26.45;60.19
47054;BME280;32811;52.382;5.270;2023-06-10T08:14:45;101682.00;;;26.52;60.20
47054;BME280;32811;52.382;5.270;2023-06-10T08:17:11;101685.88;;;26.45;59.17
47054;BME280;32811;52.382;5.270;2023-06-10T08:19:38;101682.63;;;26.40;61.04
47054;BME280;32811;52.382;5.270;2023-06-10T08:22:05;101693.50;;;26.34;60.49
47054;BME280;32811;52.382;5.270;2023-06-10T08:24:32;101688.00;;;26.57;60.04
47054;BME280;32811;52.382;5.270;2023-06-10T08:26:59;101690.97;;;26.68;60.47
47054;BME280;32811;52.382;5.270;2023-06-10T08:29:25;101686.28;;;26.91;59.31
47054;BME280;32811;52.382;5.270;2023-06-10T08:31:52;101679.13;;;27.44;57.31
47054;BME280;32811;52.382;5.270;2023-06-10T08:34:19;101684.88;;;27.36;57.13
47054;BME280;32811;52.382;5.270;2023-06-10T08:36:45;101686.34;;;27.42;57.86
47054;BME280;32811;52.382;5.270;2023-06-10T08:39:12;101686.03;;;27.80;57.40
47054;BME280;32811;52.382;5.270;2023-06-10T08:41:42;101680.56;;;27.67;55.87
47054;BME280;32811;52.382;5.270;2023-06-10T08:44:22;101688.53;;;27.67;56.91
47054;BME280;32811;52.382;5.270;2023-06-10T08:46:51;101676.34;;;27.47;55.34
47054;BME280;32811;52.382;5.270;2023-06-10T08:49:22;101688.50;;;27.84;54.99
47054;BME280;32811;52.382;5.270;2023-06-10T08:51:58;101690.34;;;27.82;54.34
47054;BME280;32811;52.382;5.270;2023-06-10T08:54:30;101693.31;;;27.60;54.45
47054;BME280;32811;52.382;5.270;2023-06-10T08:56:59;101689.09;;;27.56;54.64
47054;BME280;32811;52.382;5.270;2023-06-10T08:59:26;101692.47;;;27.60;55.23
47054;BME280;32811;52.382;5.270;2023-06-10T09:01:53;101690.03;;;27.88;54.75
47054;BME280;32811;52.382;5.270;2023-06-10T09:04:21;101690.66;;;27.93;51.51
47054;BME280;32811;52.382;5.270;2023-06-10T09:06:49;101688.53;;;27.67;52.78
47054;BME280;32811;52.382;5.270;2023-06-10T09:09:15;101691.25;;;27.99;53.29
47054;BME280;32811;52.382;5.270;2023-06-10T09:11:43;101694.34;;;27.91;53.36
47054;BME280;32811;52.382;5.270;2023-06-10T09:14:09;101696.47;;;27.84;53.65
47054;BME280;32811;52.382;5.270;2023-06-10T09:16:38;101700.25;;;27.96;53.82
47054;BME280;32811;52.382;5.270;2023-06-10T09:19:06;101686.03;;;27.80;53.68
47054;BME280;32811;52.382;5.270;2023-06-10T09:21:34;101689.41;;;28.31;53.87
47054;BME280;32811;52.382;5.270;2023-06-10T09:24:02;101685.75;;;28.33;52.24
47054;BME280;32811;52.382;5.270;2023-06-10T09:26:29;101696.47;;;28.48;52.29
47054;BME280;32811;52.382;5.270;2023-06-10T09:29:04;101687.38;;;28.52;50.23
47054;BME280;32811;52.382;5.270;2023-06-10T09:31:34;101690.81;;;28.22;51.82
47054;BME280;32811;52.382;5.270;2023-06-10T09:34:15;101689.16;;;28.20;51.40
47054;BME280;32811;52.382;5.270;2023-06-10T09:36:43;101681.66;;;28.12;51.54
47054;BME280;32811;52.382;5.270;2023-06-10T09:39:14;101689.53;;;28.29;51.11
47054;BME280;32811;52.382;5.270;2023-06-10T09:41:45;101686.78;;;27.99;52.03
47054;BME280;32811;52.382;5.270;2023-06-10T09:44:18;101684.63;;;28.22;51.89
47054;BME280;32811;52.382;5.270;2023-06-10T09:46:47;101694.16;;;28.26;52.31
47054;BME280;32811;52.382;5.270;2023-06-10T09:49:16;101684.38;;;28.10;50.13
47054;BME280;32811;52.382;5.270;2023-06-10T09:51:52;101687.47;;;28.34;51.32
47054;BME280;32811;52.382;5.270;2023-06-10T09:54:20;101688.06;;;28.86;51.20
47054;BME280;32811;52.382;5.270;2023-06-10T09:56:48;101683.28;;;28.76;49.86
47054;BME280;32811;52.382;5.270;2023-06-10T09:59:15;101687.09;;;28.87;49.92
47054;BME280;32811;52.382;5.270;2023-06-10T10:01:42;101688.69;;;28.75;48.63
47054;BME280;32811;52.382;5.270;2023-06-10T10:04:09;101686.44;;;28.83;49.17
47054;BME280;32811;52.382;5.270;2023-06-10T10:06:36;101682.16;;;29.11;49.48
47054;BME280;32811;52.382;5.270;2023-06-10T10:09:03;101674.84;;;29.29;49.38
47054;BME280;32811;52.382;5.270;2023-06-10T10:11:31;101679.25;;;29.00;47.61
47054;BME280;32811;52.382;5.270;2023-06-10T10:14:00;101686.72;;;28.79;49.03
47054;BME280;32811;52.382;5.270;2023-06-10T10:16:34;101676.00;;;29.10;49.30
47054;BME280;32811;52.382;5.270;2023-06-10T10:19:07;101676.19;;;29.65;47.89
47054;BME280;32811;52.382;5.270;2023-06-10T10:21:43;101663.84;;;29.35;46.61
47054;BME280;32811;52.382;5.270;2023-06-10T10:24:23;101675.81;;;29.42;46.13
47054;BME280;32811;52.382;5.270;2023-06-10T10:26:55;101664.03;;;29.46;46.96
47054;BME280;32811;52.382;5.270;2023-06-10T10:31:51;101665.28;;;29.41;47.06
47054;BME280;32811;52.382;5.270;2023-06-10T10:34:30;101660.16;;;29.52;45.96
47054;BME280;32811;52.382;5.270;2023-06-10T10:37:00;101667.75;;;29.44;46.25
47054;BME280;32811;52.382;5.270;2023-06-10T10:39:27;101665.53;;;29.65;46.53
47054;BME280;32811;52.382;5.270;2023-06-10T10:41:55;101663.75;;;29.65;45.34
47054;BME280;32811;52.382;5.270;2023-06-10T10:44:23;101665.94;;;29.58;45.53
47054;BME280;32811;52.382;5.270;2023-06-10T10:46:50;101658.44;;;29.51;46.60
47054;BME280;32811;52.382;5.270;2023-06-10T10:49:18;101662.69;;;29.68;45.12
47054;BME280;32811;52.382;5.270;2023-06-10T10:51:59;101657.06;;;29.87;43.80
47054;BME280;32811;52.382;5.270;2023-06-10T10:54:31;101659.13;;;30.10;44.31
47054;BME280;32811;52.382;5.270;2023-06-10T11:02:32;101647.25;;;30.02;43.49
47054;BME280;32811;52.382;5.270;2023-06-10T11:05:00;101651.63;;;30.03;44.70
47054;BME280;32811;52.382;5.270;2023-06-10T11:07:29;101643.00;;;29.85;42.83
47054;BME280;32811;52.382;5.270;2023-06-10T11:15:07;101640.41;;;29.97;42.24
47054;BME280;32811;52.382;5.270;2023-06-10T11:17:34;101647.03;;;30.05;42.57
47054;BME280;32811;52.382;5.270;2023-06-10T11:20:01;101634.72;;;29.89;41.48
47054;BME280;32811;52.382;5.270;2023-06-10T11:22:27;101635.34;;;30.07;42.31
47054;BME280;32811;52.382;5.270;2023-06-10T11:24:54;101633.13;;;29.87;41.88
47054;BME280;32811;52.382;5.270;2023-06-10T11:27:22;101638.50;;;29.99;42.30
47054;BME280;32811;52.382;5.270;2023-06-10T11:29:58;101632.53;;;29.96;42.14
47054;BME280;32811;52.382;5.270;2023-06-10T11:32:43;101637.47;;;30.02;41.69
47054;BME280;32811;52.382;5.270;2023-06-10T11:35:11;101634.69;;;29.76;39.55
47054;BME280;32811;52.382;5.270;2023-06-10T11:37:38;101625.81;;;29.76;41.24
47054;BME280;32811;52.382;5.270;2023-06-10T11:40:06;101631.69;;;29.67;41.19
47054;BME280;32811;52.382;5.270;2023-06-10T11:42:33;101609.03;;;29.61;42.35
47054;BME280;32811;52.382;5.270;2023-06-10T11:45:00;101619.94;;;29.85;41.07
47054;BME280;32811;52.382;5.270;2023-06-10T11:47:29;101626.13;;;29.98;41.17
47054;BME280;32811;52.382;5.270;2023-06-10T11:49:56;101605.41;;;30.04;41.47
47054;BME280;32811;52.382;5.270;2023-06-10T11:52:27;101608.75;;;30.20;40.31
47054;BME280;32811;52.382;5.270;2023-06-10T11:54:54;101614.38;;;30.42;40.21
47054;BME280;32811;52.382;5.270;2023-06-10T11:57:21;101620.16;;;30.22;39.85
47054;BME280;32811;52.382;5.270;2023-06-10T11:59:48;101609.47;;;30.09;40.88
47054;BME280;32811;52.382;5.270;2023-06-10T12:02:16;101625.72;;;30.19;40.76
47054;BME280;32811;52.382;5.270;2023-06-10T12:04:42;101610.53;;;30.34;40.90
47054;BME280;32811;52.382;5.270;2023-06-10T12:07:17;101617.59;;;30.20;39.03
47054;BME280;32811;52.382;5.270;2023-06-10T12:09:44;101609.06;;;30.42;39.78
47054;BME280;32811;52.382;5.270;2023-06-10T12:12:11;101603.44;;;30.20;40.16
47054;BME280;32811;52.382;5.270;2023-06-10T12:14:58;101606.31;;;30.17;40.65
47054;BME280;32811;52.382;5.270;2023-06-10T12:19:59;101598.09;;;30.34;40.56
47054;BME280;32811;52.382;5.270;2023-06-10T12:22:27;101599.78;;;30.08;39.80
47054;BME280;32811;52.382;5.270;2023-06-10T12:25:03;101596.38;;;30.06;37.73
47054;BME280;32811;52.382;5.270;2023-06-10T12:27:31;101587.19;;;29.97;38.77
47054;BME280;32811;52.382;5.270;2023-06-10T12:29:59;101593.31;;;30.25;38.30
47054;BME280;32811;52.382;5.270;2023-06-10T12:32:40;101586.59;;;30.19;38.16
47054;BME280;32811;52.382;5.270;2023-06-10T12:35:10;101589.88;;;30.37;38.73
47054;BME280;32811;52.382;5.270;2023-06-10T12:37:40;101581.22;;;30.34;38.73
47054;BME280;32811;52.382;5.270;2023-06-10T12:40:10;101591.06;;;30.46;38.82
47054;BME280;32811;52.382;5.270;2023-06-10T12:42:37;101583.41;;;30.54;37.67
47054;BME280;32811;52.382;5.270;2023-06-10T12:45:04;101584.03;;;30.32;37.95
47054;BME280;32811;52.382;5.270;2023-06-10T12:47:35;101586.53;;;30.21;37.49
47054;BME280;32811;52.382;5.270;2023-06-10T12:50:06;101580.69;;;30.02;38.01
47054;BME280;32811;52.382;5.270;2023-06-10T12:52:33;101582.06;;;29.94;38.31
47054;BME280;32811;52.382;5.270;2023-06-10T12:55:00;101577.22;;;30.14;38.29
47054;BME280;32811;52.382;5.270;2023-06-10T12:57:27;101571.56;;;30.18;38.33
47054;BME280;32811;52.382;5.270;2023-06-10T12:59:54;101584.22;;;30.29;38.15
47054;BME280;32811;52.382;5.270;2023-06-10T13:02:23;101579.53;;;30.06;37.08
47054;BME280;32811;52.382;5.270;2023-06-10T13:04:50;101592.25;;;29.88;37.18
47054;BME280;32811;52.382;5.270;2023-06-10T13:07:17;101580.75;;;29.87;37.92
47054;BME280;32811;52.382;5.270;2023-06-10T13:09:44;101574.53;;;30.01;37.75
47054;BME280;32811;52.382;5.270;2023-06-10T13:12:11;101577.72;;;30.06;37.29